sensor_id;sensor_type;location;lat;lon;timestamp;temperature;humidity
13569;DHT22;6856;51.460;7.158;2023-02-28T00:01:45;3.90;54.10
13569;DHT22;6856;51.460;7.158;2023-02-28T00:04:18;3.90;54.10
13569;DHT22;6856;51.460;7.158;2023-02-28T00:06:52;3.90;54.60
13569;DHT22;6856;51.460;7.158;2023-02-28T00:09:26;3.90;54.10
13569;DHT22;6856;51.460;7.158;2023-02-28T00:12:02;3.90;54.10
13569;DHT22;6856;51.460;7.158;2023-02-28T00:14:44;3.80;54.10
13569;DHT22;6856;51.460;7.158;2023-02-28T00:17:18;3.80;54.10
13569;DHT22;6856;51.460;7.158;2023-02-28T00:19:53;3.80;54.10
13569;DHT22;6856;51.460;7.158;2023-02-28T00:22:28;3.80;54.10
13569;DHT22;6856;51.460;7.158;2023-02-28T00:25:02;3.80;54.20
13569;DHT22;6856;51.460;7.158;2023-02-28T00:27:39;3.80;54.20
13569;DHT22;6856;51.460;7.158;2023-02-28T00:30:16;3.80;54.30
13569;DHT22;6856;51.460;7.158;2023-02-28T00:32:51;3.80;54.30
13569;DHT22;6856;51.460;7.158;2023-02-28T00:35:25;3.80;54.20
13569;DHT22;6856;51.460;7.158;2023-02-28T00:37:58;3.80;54.20
13569;DHT22;6856;51.460;7.158;2023-02-28T00:40:32;3.90;54.30
13569;DHT22;6856;51.460;7.158;2023-02-28T00:43:10;3.70;54.20
13569;DHT22;6856;51.460;7.158;2023-02-28T00:45:43;3.70;54.20
13569;DHT22;6856;51.460;7.158;2023-02-28T00:48:17;3.80;54.30
13569;DHT22;6856;51.460;7.158;2023-02-28T00:50:50;3.80;54.40
13569;DHT22;6856;51.460;7.158;2023-02-28T00:53:25;3.70;54.30
13569;DHT22;6856;51.460;7.158;2023-02-28T00:55:59;3.70;54.30
13569;DHT22;6856;51.460;7.158;2023-02-28T00:58:34;3.70;54.30
13569;DHT22;6856;51.460;7.158;2023-02-28T01:01:08;3.70;54.20
13569;DHT22;6856;51.460;7.158;2023-02-28T01:03:43;3.70;54.30
13569;DHT22;6856;51.460;7.158;2023-02-28T01:06:17;3.70;54.20
13569;DHT22;6856;51.460;7.158;2023-02-28T01:08:50;3.70;54.20
13569;DHT22;6856;51.460;7.158;2023-02-28T01:11:25;3.60;54.20
13569;DHT22;6856;51.460;7.158;2023-02-28T01:14:01;3.60;54.30
13569;DHT22;6856;51.460;7.158;2023-02-28T01:16:35;3.60;54.30
13569;DHT22;6856;51.460;7.158;2023-02-28T01:19:10;3.60;54.20
13569;DHT22;6856;51.460;7.158;2023-02-28T01:21:45;3.60;54.30
13569;DHT22;6856;51.460;7.158;2023-02-28T01:24:18;3.60;54.30
13569;DHT22;6856;51.460;7.158;2023-02-28T01:26:52;3.50;54.60
13569;DHT22;6856;51.460;7.158;2023-02-28T01:29:27;3.50;54.40
13569;DHT22;6856;51.460;7.158;2023-02-28T01:32:03;3.50;54.40
13569;DHT22;6856;51.460;7.158;2023-02-28T01:34:37;3.50;54.50
13569;DHT22;6856;51.460;7.158;2023-02-28T01:37:11;3.70;54.60
13569;DHT22;6856;51.460;7.158;2023-02-28T01:39:46;3.50;54.60
13569;DHT22;6856;51.460;7.158;2023-02-28T01:42:19;3.40;54.60
13569;DHT22;6856;51.460;7.158;2023-02-28T01:45:21;3.40;54.60
13569;DHT22;6856;51.460;7.158;2023-02-28T01:48:02;3.40;54.80
13569;DHT22;6856;51.460;7.158;2023-02-28T01:50:42;3.40;54.70
13569;DHT22;6856;51.460;7.158;2023-02-28T01:53:21;3.30;54.70
13569;DHT22;6856;51.460;7.158;2023-02-28T01:56:00;3.40;54.70
13569;DHT22;6856;51.460;7.158;2023-02-28T01:58:38;3.30;54.70
13569;DHT22;6856;51.460;7.158;2023-02-28T02:01:14;3.30;54.70
13569;DHT22;6856;51.460;7.158;2023-02-28T02:03:55;3.30;54.70
13569;DHT22;6856;51.460;7.158;2023-02-28T02:06:34;3.30;54.70
13569;DHT22;6856;51.460;7.158;2023-02-28T02:09:11;3.30;54.70
13569;DHT22;6856;51.460;7.158;2023-02-28T02:11:46;3.30;54.70
13569;DHT22;6856;51.460;7.158;2023-02-28T02:14:46;3.30;54.70
13569;DHT22;6856;51.460;7.158;2023-02-28T02:17:39;3.30;54.70
13569;DHT22;6856;51.460;7.158;2023-02-28T02:21:01;3.30;54.60
13569;DHT22;6856;51.460;7.158;2023-02-28T02:24:14;3.20;54.70
13569;DHT22;6856;51.460;7.158;2023-02-28T02:27:25;3.20;54.60
13569;DHT22;6856;51.460;7.158;2023-02-28T02:30:41;3.20;54.50
13569;DHT22;6856;51.460;7.158;2023-02-28T02:37:24;3.20;54.40
13569;DHT22;6856;51.460;7.158;2023-02-28T02:40:10;3.20;54.40
13569;DHT22;6856;51.460;7.158;2023-02-28T02:42:52;3.10;54.40
13569;DHT22;6856;51.460;7.158;2023-02-28T02:45:36;3.20;54.40
13569;DHT22;6856;51.460;7.158;2023-02-28T02:48:16;3.10;54.40
13569;DHT22;6856;51.460;7.158;2023-02-28T02:50:58;3.00;54.40
13569;DHT22;6856;51.460;7.158;2023-02-28T02:53:38;3.00;54.50
13569;DHT22;6856;51.460;7.158;2023-02-28T02:56:17;3.00;54.50
13569;DHT22;6856;51.460;7.158;2023-02-28T02:58:58;3.00;54.50
13569;DHT22;6856;51.460;7.158;2023-02-28T03:01:37;3.00;54.60
13569;DHT22;6856;51.460;7.158;2023-02-28T03:04:18;2.90;54.60
13569;DHT22;6856;51.460;7.158;2023-02-28T03:06:55;3.10;54.80
13569;DHT22;6856;51.460;7.158;2023-02-28T03:09:33;2.90;54.70
13569;DHT22;6856;51.460;7.158;2023-02-28T03:12:12;2.90;54.70
13569;DHT22;6856;51.460;7.158;2023-02-28T03:14:55;2.90;54.80
13569;DHT22;6856;51.460;7.158;2023-02-28T03:17:47;2.90;54.80
13569;DHT22;6856;51.460;7.158;2023-02-28T03:20:37;2.80;54.80
13569;DHT22;6856;51.460;7.158;2023-02-28T03:23:29;2.80;54.80
13569;DHT22;6856;51.460;7.158;2023-02-28T03:26:17;2.80;54.90
13569;DHT22;6856;51.460;7.158;2023-02-28T03:29:02;2.80;55.00
13569;DHT22;6856;51.460;7.158;2023-02-28T03:31:40;3.00;55.10
13569;DHT22;6856;51.460;7.158;2023-02-28T03:34:23;2.70;55.00
13569;DHT22;6856;51.460;7.158;2023-02-28T03:37:02;2.70;55.00
13569;DHT22;6856;51.460;7.158;2023-02-28T03:39:45;2.70;55.10
13569;DHT22;6856;51.460;7.158;2023-02-28T03:42:25;2.80;55.10
13569;DHT22;6856;51.460;7.158;2023-02-28T03:45:04;2.70;55.10
13569;DHT22;6856;51.460;7.158;2023-02-28T03:47:46;2.70;55.10
13569;DHT22;6856;51.460;7.158;2023-02-28T03:50:25;2.80;55.10
13569;DHT22;6856;51.460;7.158;2023-02-28T03:53:06;2.70;55.10
13569;DHT22;6856;51.460;7.158;2023-02-28T03:55:48;2.60;55.00
13569;DHT22;6856;51.460;7.158;2023-02-28T03:58:29;2.60;55.00
13569;DHT22;6856;51.460;7.158;2023-02-28T04:01:11;2.60;54.90
13569;DHT22;6856;51.460;7.158;2023-02-28T04:03:49;2.60;54.90
13569;DHT22;6856;51.460;7.158;2023-02-28T04:06:24;2.60;54.90
13569;DHT22;6856;51.460;7.158;2023-02-28T04:08:59;2.80;54.90
13569;DHT22;6856;51.460;7.158;2023-02-28T04:11:38;2.60;54.90
13569;DHT22;6856;51.460;7.158;2023-02-28T04:14:13;2.60;54.80
13569;DHT22;6856;51.460;7.158;2023-02-28T04:16:47;2.60;54.80
13569;DHT22;6856;51.460;7.158;2023-02-28T04:19:22;2.60;54.80
13569;DHT22;6856;51.460;7.158;2023-02-28T04:21:56;2.60;54.70
13569;DHT22;6856;51.460;7.158;2023-02-28T04:24:30;2.60;54.80
13569;DHT22;6856;51.460;7.158;2023-02-28T04:27:05;2.60;54.80
13569;DHT22;6856;51.460;7.158;2023-02-28T04:29:38;2.50;54.70
13569;DHT22;6856;51.460;7.158;2023-02-28T04:32:16;2.50;54.80
13569;DHT22;6856;51.460;7.158;2023-02-28T04:34:50;2.50;54.80
13569;DHT22;6856;51.460;7.158;2023-02-28T04:37:24;2.50;54.80
13569;DHT22;6856;51.460;7.158;2023-02-28T04:40:00;2.50;54.80
13569;DHT22;6856;51.460;7.158;2023-02-28T04:42:36;2.40;54.90
13569;DHT22;6856;51.460;7.158;2023-02-28T04:45:10;2.70;55.10
13569;DHT22;6856;51.460;7.158;2023-02-28T04:47:44;2.40;55.00
13569;DHT22;6856;51.460;7.158;2023-02-28T04:50:18;2.40;55.00
13569;DHT22;6856;51.460;7.158;2023-02-28T04:52:51;2.40;55.00
13569;DHT22;6856;51.460;7.158;2023-02-28T04:55:25;2.50;55.10
13569;DHT22;6856;51.460;7.158;2023-02-28T04:58:00;2.30;55.00
13569;DHT22;6856;51.460;7.158;2023-02-28T05:00:35;2.30;55.10
13569;DHT22;6856;51.460;7.158;2023-02-28T05:03:10;2.40;55.20
13569;DHT22;6856;51.460;7.158;2023-02-28T05:05:44;2.30;55.10
13569;DHT22;6856;51.460;7.158;2023-02-28T05:08:18;2.30;55.10
13569;DHT22;6856;51.460;7.158;2023-02-28T05:10:52;2.30;54.90
13569;DHT22;6856;51.460;7.158;2023-02-28T05:13:27;2.40;55.10
13569;DHT22;6856;51.460;7.158;2023-02-28T05:16:01;2.30;55.20
13569;DHT22;6856;51.460;7.158;2023-02-28T05:18:35;2.30;55.00
13569;DHT22;6856;51.460;7.158;2023-02-28T05:21:24;2.20;55.00
13569;DHT22;6856;51.460;7.158;2023-02-28T05:24:01;2.20;55.10
13569;DHT22;6856;51.460;7.158;2023-02-28T05:26:37;2.20;55.10
13569;DHT22;6856;51.460;7.158;2023-02-28T05:29:14;2.20;55.10
13569;DHT22;6856;51.460;7.158;2023-02-28T05:31:48;2.20;55.10
13569;DHT22;6856;51.460;7.158;2023-02-28T05:34:25;2.20;55.10
13569;DHT22;6856;51.460;7.158;2023-02-28T05:36:59;2.20;55.10
13569;DHT22;6856;51.460;7.158;2023-02-28T05:39:33;2.20;55.20
13569;DHT22;6856;51.460;7.158;2023-02-28T05:42:07;2.10;55.10
13569;DHT22;6856;51.460;7.158;2023-02-28T05:44:42;2.10;55.20
13569;DHT22;6856;51.460;7.158;2023-02-28T05:47:16;2.10;55.10
13569;DHT22;6856;51.460;7.158;2023-02-28T05:49:50;2.10;55.10
13569;DHT22;6856;51.460;7.158;2023-02-28T05:52:24;2.10;55.20
13569;DHT22;6856;51.460;7.158;2023-02-28T05:54:57;2.10;55.10
13569;DHT22;6856;51.460;7.158;2023-02-28T05:57:31;2.10;55.20
13569;DHT22;6856;51.460;7.158;2023-02-28T06:00:09;2.10;55.20
13569;DHT22;6856;51.460;7.158;2023-02-28T06:02:46;2.00;55.20
13569;DHT22;6856;51.460;7.158;2023-02-28T06:05:21;2.00;55.20
13569;DHT22;6856;51.460;7.158;2023-02-28T06:07:54;2.00;55.20
13569;DHT22;6856;51.460;7.158;2023-02-28T06:10:29;2.00;55.20
13569;DHT22;6856;51.460;7.158;2023-02-28T06:13:03;2.00;55.20
13569;DHT22;6856;51.460;7.158;2023-02-28T06:15:41;2.00;55.20
13569;DHT22;6856;51.460;7.158;2023-02-28T06:18:14;2.00;55.20
13569;DHT22;6856;51.460;7.158;2023-02-28T06:20:52;2.00;55.10
13569;DHT22;6856;51.460;7.158;2023-02-28T06:23:28;2.00;55.20
13569;DHT22;6856;51.460;7.158;2023-02-28T06:26:01;2.00;55.20
13569;DHT22;6856;51.460;7.158;2023-02-28T06:28:35;2.00;55.20
13569;DHT22;6856;51.460;7.158;2023-02-28T06:31:12;2.00;55.20
13569;DHT22;6856;51.460;7.158;2023-02-28T06:33:48;2.10;55.30
13569;DHT22;6856;51.460;7.158;2023-02-28T06:36:24;1.90;55.30
13569;DHT22;6856;51.460;7.158;2023-02-28T06:38:58;1.90;55.40
13569;DHT22;6856;51.460;7.158;2023-02-28T06:41:32;1.90;55.30
13569;DHT22;6856;51.460;7.158;2023-02-28T06:44:25;1.90;55.40
13569;DHT22;6856;51.460;7.158;2023-02-28T06:47:01;1.90;55.30
13569;DHT22;6856;51.460;7.158;2023-02-28T06:49:36;1.90;55.40
13569;DHT22;6856;51.460;7.158;2023-02-28T06:52:10;2.20;55.40
13569;DHT22;6856;51.460;7.158;2023-02-28T06:54:45;1.90;55.40
13569;DHT22;6856;51.460;7.158;2023-02-28T06:57:18;1.90;55.40
13569;DHT22;6856;51.460;7.158;2023-02-28T06:59:52;1.90;55.50
13569;DHT22;6856;51.460;7.158;2023-02-28T07:02:28;1.90;55.50
13569;DHT22;6856;51.460;7.158;2023-02-28T07:05:02;1.90;55.50
13569;DHT22;6856;51.460;7.158;2023-02-28T07:07:36;1.90;55.70
13569;DHT22;6856;51.460;7.158;2023-02-28T07:10:12;1.90;55.70
13569;DHT22;6856;51.460;7.158;2023-02-28T07:12:51;2.00;55.90
13569;DHT22;6856;51.460;7.158;2023-02-28T07:15:25;2.00;56.00
13569;DHT22;6856;51.460;7.158;2023-02-28T07:18:02;2.10;56.10
13569;DHT22;6856;51.460;7.158;2023-02-28T07:20:36;2.10;56.30
13569;DHT22;6856;51.460;7.158;2023-02-28T07:23:09;2.10;56.20
13569;DHT22;6856;51.460;7.158;2023-02-28T07:25:43;2.20;56.40
13569;DHT22;6856;51.460;7.158;2023-02-28T07:28:19;2.20;56.50
13569;DHT22;6856;51.460;7.158;2023-02-28T07:30:54;2.30;56.40
13569;DHT22;6856;51.460;7.158;2023-02-28T07:33:29;2.30;56.40
13569;DHT22;6856;51.460;7.158;2023-02-28T07:36:04;2.30;56.40
13569;DHT22;6856;51.460;7.158;2023-02-28T07:38:39;2.40;56.50
13569;DHT22;6856;51.460;7.158;2023-02-28T07:41:13;2.50;56.50
13569;DHT22;6856;51.460;7.158;2023-02-28T07:43:47;2.60;56.60
13569;DHT22;6856;51.460;7.158;2023-02-28T07:46:21;2.60;56.50
13569;DHT22;6856;51.460;7.158;2023-02-28T07:48:57;2.70;56.50
13569;DHT22;6856;51.460;7.158;2023-02-28T07:51:32;2.80;56.50
13569;DHT22;6856;51.460;7.158;2023-02-28T07:54:06;2.80;56.40
13569;DHT22;6856;51.460;7.158;2023-02-28T07:56:40;2.90;56.30
13569;DHT22;6856;51.460;7.158;2023-02-28T07:59:14;3.00;56.10
13569;DHT22;6856;51.460;7.158;2023-02-28T08:01:48;3.10;55.80
13569;DHT22;6856;51.460;7.158;2023-02-28T08:04:24;3.10;55.70
13569;DHT22;6856;51.460;7.158;2023-02-28T08:06:58;3.20;55.70
13569;DHT22;6856;51.460;7.158;2023-02-28T08:09:32;3.20;55.60
13569;DHT22;6856;51.460;7.158;2023-02-28T08:12:08;3.30;55.40
13569;DHT22;6856;51.460;7.158;2023-02-28T08:14:42;3.30;55.50
13569;DHT22;6856;51.460;7.158;2023-02-28T08:17:16;3.40;55.40
13569;DHT22;6856;51.460;7.158;2023-02-28T08:19:52;3.40;55.20
13569;DHT22;6856;51.460;7.158;2023-02-28T08:22:26;3.50;55.30
13569;DHT22;6856;51.460;7.158;2023-02-28T08:25:02;3.50;55.20
13569;DHT22;6856;51.460;7.158;2023-02-28T08:27:36;3.50;55.20
13569;DHT22;6856;51.460;7.158;2023-02-28T08:30:11;3.60;55.00
13569;DHT22;6856;51.460;7.158;2023-02-28T08:32:46;3.60;54.90
13569;DHT22;6856;51.460;7.158;2023-02-28T08:35:21;3.70;55.10
13569;DHT22;6856;51.460;7.158;2023-02-28T08:37:55;3.70;55.10
13569;DHT22;6856;51.460;7.158;2023-02-28T08:40:29;3.80;54.90
13569;DHT22;6856;51.460;7.158;2023-02-28T08:43:03;3.90;54.90
13569;DHT22;6856;51.460;7.158;2023-02-28T08:45:37;3.90;54.90
13569;DHT22;6856;51.460;7.158;2023-02-28T08:48:11;4.00;54.80
13569;DHT22;6856;51.460;7.158;2023-02-28T08:50:55;4.10;54.60
13569;DHT22;6856;51.460;7.158;2023-02-28T08:53:39;4.40;54.70
13569;DHT22;6856;51.460;7.158;2023-02-28T08:56:14;4.30;54.60
13569;DHT22;6856;51.460;7.158;2023-02-28T08:58:50;4.40;54.50
13569;DHT22;6856;51.460;7.158;2023-02-28T09:01:28;4.50;54.10
13569;DHT22;6856;51.460;7.158;2023-02-28T09:04:04;4.60;53.60
13569;DHT22;6856;51.460;7.158;2023-02-28T09:06:42;4.70;53.00
13569;DHT22;6856;51.460;7.158;2023-02-28T09:09:16;4.80;53.00
13569;DHT22;6856;51.460;7.158;2023-02-28T09:11:50;4.90;52.90
13569;DHT22;6856;51.460;7.158;2023-02-28T09:14:24;4.90;52.60
13569;DHT22;6856;51.460;7.158;2023-02-28T09:16:58;5.00;52.40
13569;DHT22;6856;51.460;7.158;2023-02-28T09:19:32;5.10;52.50
13569;DHT22;6856;51.460;7.158;2023-02-28T09:22:07;5.20;52.30
13569;DHT22;6856;51.460;7.158;2023-02-28T09:24:41;5.20;52.20
13569;DHT22;6856;51.460;7.158;2023-02-28T09:27:16;5.30;52.10
13569;DHT22;6856;51.460;7.158;2023-02-28T09:29:50;5.40;52.00
13569;DHT22;6856;51.460;7.158;2023-02-28T09:32:23;5.50;51.80
13569;DHT22;6856;51.460;7.158;2023-02-28T09:34:57;5.60;51.50
13569;DHT22;6856;51.460;7.158;2023-02-28T09:37:32;5.70;51.30
13569;DHT22;6856;51.460;7.158;2023-02-28T09:40:09;5.80;51.10
13569;DHT22;6856;51.460;7.158;2023-02-28T09:42:46;5.90;50.80
13569;DHT22;6856;51.460;7.158;2023-02-28T09:45:24;6.00;50.80
13569;DHT22;6856;51.460;7.158;2023-02-28T09:48:07;6.00;50.70
13569;DHT22;6856;51.460;7.158;2023-02-28T09:50:48;6.10;50.90
13569;DHT22;6856;51.460;7.158;2023-02-28T09:53:29;6.20;50.10
13569;DHT22;6856;51.460;7.158;2023-02-28T09:56:08;6.30;49.90
13569;DHT22;6856;51.460;7.158;2023-02-28T09:58:47;6.40;49.90
13569;DHT22;6856;51.460;7.158;2023-02-28T10:01:31;6.50;50.40
13569;DHT22;6856;51.460;7.158;2023-02-28T10:04:16;6.60;49.70
13569;DHT22;6856;51.460;7.158;2023-02-28T10:07:18;6.60;49.40
13569;DHT22;6856;51.460;7.158;2023-02-28T10:10:04;6.70;49.30
13569;DHT22;6856;51.460;7.158;2023-02-28T10:12:52;6.80;49.10
13569;DHT22;6856;51.460;7.158;2023-02-28T10:15:31;6.90;49.10
13569;DHT22;6856;51.460;7.158;2023-02-28T10:18:12;7.20;49.00
13569;DHT22;6856;51.460;7.158;2023-02-28T10:20:52;7.00;48.60
13569;DHT22;6856;51.460;7.158;2023-02-28T10:23:32;7.10;48.80
13569;DHT22;6856;51.460;7.158;2023-02-28T10:26:12;7.10;48.50
13569;DHT22;6856;51.460;7.158;2023-02-28T10:28:48;7.20;48.40
13569;DHT22;6856;51.460;7.158;2023-02-28T10:31:25;7.40;48.50
13569;DHT22;6856;51.460;7.158;2023-02-28T10:33:59;7.60;48.40
13569;DHT22;6856;51.460;7.158;2023-02-28T10:36:33;7.40;48.10
13569;DHT22;6856;51.460;7.158;2023-02-28T10:39:34;7.40;47.90
13569;DHT22;6856;51.460;7.158;2023-02-28T10:42:23;7.50;47.60
13569;DHT22;6856;51.460;7.158;2023-02-28T10:45:11;7.60;47.70
13569;DHT22;6856;51.460;7.158;2023-02-28T10:47:53;7.70;47.40
13569;DHT22;6856;51.460;7.158;2023-02-28T10:50:32;7.70;47.10
13569;DHT22;6856;51.460;7.158;2023-02-28T10:56:32;7.80;46.50
13569;DHT22;6856;51.460;7.158;2023-02-28T10:59:28;7.90;46.70
13569;DHT22;6856;51.460;7.158;2023-02-28T11:02:30;7.90;46.10
13569;DHT22;6856;51.460;7.158;2023-02-28T11:05:27;7.90;46.00
13569;DHT22;6856;51.460;7.158;2023-02-28T11:08:06;8.00;45.90
13569;DHT22;6856;51.460;7.158;2023-02-28T11:10:46;8.00;45.90
13569;DHT22;6856;51.460;7.158;2023-02-28T11:13:26;8.00;45.90
13569;DHT22;6856;51.460;7.158;2023-02-28T11:16:06;8.10;45.60
13569;DHT22;6856;51.460;7.158;2023-02-28T11:18:46;8.10;45.50
13569;DHT22;6856;51.460;7.158;2023-02-28T11:21:26;8.10;45.50
13569;DHT22;6856;51.460;7.158;2023-02-28T11:24:05;8.10;45.30
13569;DHT22;6856;51.460;7.158;2023-02-28T11:26:49;8.20;45.50
13569;DHT22;6856;51.460;7.158;2023-02-28T11:29:25;8.20;45.20
13569;DHT22;6856;51.460;7.158;2023-02-28T11:32:13;8.40;45.10
13569;DHT22;6856;51.460;7.158;2023-02-28T11:35:00;8.20;44.60
13569;DHT22;6856;51.460;7.158;2023-02-28T11:37:39;8.20;44.40
13569;DHT22;6856;51.460;7.158;2023-02-28T11:40:14;8.20;44.40
13569;DHT22;6856;51.460;7.158;2023-02-28T11:43:00;7.80;44.30
13569;DHT22;6856;51.460;7.158;2023-02-28T11:45:49;8.10;44.60
13569;DHT22;6856;51.460;7.158;2023-02-28T11:48:42;8.00;44.90
13569;DHT22;6856;51.460;7.158;2023-02-28T11:51:27;8.10;45.00
13569;DHT22;6856;51.460;7.158;2023-02-28T11:54:29;8.20;45.10
13569;DHT22;6856;51.460;7.158;2023-02-28T11:57:30;8.20;45.00
13569;DHT22;6856;51.460;7.158;2023-02-28T12:00:19;8.30;45.20
13569;DHT22;6856;51.460;7.158;2023-02-28T12:03:16;8.40;45.20
13569;DHT22;6856;51.460;7.158;2023-02-28T12:06:10;8.50;45.10
13569;DHT22;6856;51.460;7.158;2023-02-28T12:12:00;8.70;45.10
13569;DHT22;6856;51.460;7.158;2023-02-28T12:14:53;8.80;45.30
13569;DHT22;6856;51.460;7.158;2023-02-28T12:17:46;8.90;45.10
13569;DHT22;6856;51.460;7.158;2023-02-28T12:20:34;9.00;44.70
13569;DHT22;6856;51.460;7.158;2023-02-28T12:26:16;9.10;44.60
13569;DHT22;6856;51.460;7.158;2023-02-28T12:29:00;9.30;44.00
13569;DHT22;6856;51.460;7.158;2023-02-28T12:31:45;9.30;44.30
13569;DHT22;6856;51.460;7.158;2023-02-28T12:34:27;9.30;44.20
13569;DHT22;6856;51.460;7.158;2023-02-28T12:37:09;9.40;44.30
13569;DHT22;6856;51.460;7.158;2023-02-28T12:39:52;9.50;44.30
13569;DHT22;6856;51.460;7.158;2023-02-28T12:42:32;9.50;44.10
13569;DHT22;6856;51.460;7.158;2023-02-28T12:45:17;9.50;44.00
13569;DHT22;6856;51.460;7.158;2023-02-28T12:47:56;9.60;44.20
13569;DHT22;6856;51.460;7.158;2023-02-28T12:50:33;9.70;44.20
13569;DHT22;6856;51.460;7.158;2023-02-28T12:53:13;9.80;44.10
13569;DHT22;6856;51.460;7.158;2023-02-28T12:56:07;9.80;43.80
13569;DHT22;6856;51.460;7.158;2023-02-28T12:58:51;9.90;43.60
13569;DHT22;6856;51.460;7.158;2023-02-28T13:05:10;9.90;43.30
13569;DHT22;6856;51.460;7.158;2023-02-28T13:08:20;10.00;43.40
13569;DHT22;6856;51.460;7.158;2023-02-28T13:11:24;10.00;43.20
13569;DHT22;6856;51.460;7.158;2023-02-28T13:14:04;10.00;43.40
13569;DHT22;6856;51.460;7.158;2023-02-28T13:16:56;10.00;43.50
13569;DHT22;6856;51.460;7.158;2023-02-28T13:19:33;10.00;43.40
13569;DHT22;6856;51.460;7.158;2023-02-28T13:22:19;10.00;43.50
13569;DHT22;6856;51.460;7.158;2023-02-28T13:28:58;10.10;43.70
13569;DHT22;6856;51.460;7.158;2023-02-28T13:38:32;10.20;43.00
13569;DHT22;6856;51.460;7.158;2023-02-28T13:41:48;10.30;43.30
13569;DHT22;6856;51.460;7.158;2023-02-28T13:44:22;10.30;43.00
13569;DHT22;6856;51.460;7.158;2023-02-28T13:47:21;10.30;43.40
13569;DHT22;6856;51.460;7.158;2023-02-28T13:50:22;10.30;43.40
13569;DHT22;6856;51.460;7.158;2023-02-28T13:53:26;10.30;43.30
13569;DHT22;6856;51.460;7.158;2023-02-28T13:56:25;10.30;43.10
13569;DHT22;6856;51.460;7.158;2023-02-28T13:59:18;10.30;43.30
13569;DHT22;6856;51.460;7.158;2023-02-28T14:05:14;10.20;43.30
13569;DHT22;6856;51.460;7.158;2023-02-28T14:07:56;10.20;43.40
13569;DHT22;6856;51.460;7.158;2023-02-28T14:10:37;10.20;43.60
13569;DHT22;6856;51.460;7.158;2023-02-28T14:13:40;10.20;43.60
13569;DHT22;6856;51.460;7.158;2023-02-28T14:16:21;10.10;43.10
13569;DHT22;6856;51.460;7.158;2023-02-28T14:19:01;10.10;43.50
13569;DHT22;6856;51.460;7.158;2023-02-28T14:25:16;10.10;43.20
13569;DHT22;6856;51.460;7.158;2023-02-28T14:28:06;10.00;43.40
13569;DHT22;6856;51.460;7.158;2023-02-28T14:30:57;10.00;43.40
13569;DHT22;6856;51.460;7.158;2023-02-28T14:33:53;9.90;43.40
13569;DHT22;6856;51.460;7.158;2023-02-28T14:36:35;9.90;43.60
13569;DHT22;6856;51.460;7.158;2023-02-28T14:39:13;10.10;43.70
13569;DHT22;6856;51.460;7.158;2023-02-28T14:41:51;9.80;43.80
13569;DHT22;6856;51.460;7.158;2023-02-28T14:44:27;9.80;43.50
13569;DHT22;6856;51.460;7.158;2023-02-28T14:47:02;9.80;43.70
13569;DHT22;6856;51.460;7.158;2023-02-28T14:49:45;9.70;43.60
13569;DHT22;6856;51.460;7.158;2023-02-28T14:52:22;9.70;43.50
13569;DHT22;6856;51.460;7.158;2023-02-28T14:55:00;9.70;43.60
13569;DHT22;6856;51.460;7.158;2023-02-28T14:57:43;9.60;43.70
13569;DHT22;6856;51.460;7.158;2023-02-28T15:00:25;9.60;43.60
13569;DHT22;6856;51.460;7.158;2023-02-28T15:03:18;9.50;43.70
13569;DHT22;6856;51.460;7.158;2023-02-28T15:05:56;9.50;43.50
13569;DHT22;6856;51.460;7.158;2023-02-28T15:08:31;9.40;43.60
13569;DHT22;6856;51.460;7.158;2023-02-28T15:11:12;9.40;43.60
13569;DHT22;6856;51.460;7.158;2023-02-28T15:13:51;9.30;43.40
13569;DHT22;6856;51.460;7.158;2023-02-28T15:16:31;9.20;43.30
13569;DHT22;6856;51.460;7.158;2023-02-28T15:19:17;9.20;43.30
13569;DHT22;6856;51.460;7.158;2023-02-28T15:21:57;9.10;43.20
13569;DHT22;6856;51.460;7.158;2023-02-28T15:24:40;9.10;43.40
13569;DHT22;6856;51.460;7.158;2023-02-28T15:27:21;9.00;43.40
13569;DHT22;6856;51.460;7.158;2023-02-28T15:29:59;8.90;43.40
13569;DHT22;6856;51.460;7.158;2023-02-28T15:32:38;8.90;43.50
13569;DHT22;6856;51.460;7.158;2023-02-28T15:35:24;8.80;43.50
13569;DHT22;6856;51.460;7.158;2023-02-28T15:38:03;8.80;43.60
13569;DHT22;6856;51.460;7.158;2023-02-28T15:40:51;8.70;43.60
13569;DHT22;6856;51.460;7.158;2023-02-28T15:43:30;9.00;43.80
13569;DHT22;6856;51.460;7.158;2023-02-28T15:46:07;8.70;43.70
13569;DHT22;6856;51.460;7.158;2023-02-28T15:48:48;8.60;43.80
13569;DHT22;6856;51.460;7.158;2023-02-28T15:51:31;8.60;43.90
13569;DHT22;6856;51.460;7.158;2023-02-28T15:54:10;8.60;43.90
13569;DHT22;6856;51.460;7.158;2023-02-28T15:56:51;8.60;43.80
13569;DHT22;6856;51.460;7.158;2023-02-28T15:59:29;8.60;43.80
13569;DHT22;6856;51.460;7.158;2023-02-28T16:02:16;8.60;43.90
13569;DHT22;6856;51.460;7.158;2023-02-28T16:05:02;8.60;44.00
13569;DHT22;6856;51.460;7.158;2023-02-28T16:07:53;8.60;44.30
13569;DHT22;6856;51.460;7.158;2023-02-28T16:10:28;8.60;44.40
13569;DHT22;6856;51.460;7.158;2023-02-28T16:13:03;8.60;44.30
13569;DHT22;6856;51.460;7.158;2023-02-28T16:15:39;8.50;44.30
13569;DHT22;6856;51.460;7.158;2023-02-28T16:18:17;8.50;44.50
13569;DHT22;6856;51.460;7.158;2023-02-28T16:20:50;8.50;44.50
13569;DHT22;6856;51.460;7.158;2023-02-28T16:23:24;8.50;44.50
13569;DHT22;6856;51.460;7.158;2023-02-28T16:25:57;8.70;44.70
13569;DHT22;6856;51.460;7.158;2023-02-28T16:28:33;8.40;44.60
13569;DHT22;6856;51.460;7.158;2023-02-28T16:31:11;8.40;44.60
13569;DHT22;6856;51.460;7.158;2023-02-28T16:33:50;8.30;44.60
13569;DHT22;6856;51.460;7.158;2023-02-28T16:36:23;8.30;44.60
13569;DHT22;6856;51.460;7.158;2023-02-28T16:38:57;8.20;44.50
13569;DHT22;6856;51.460;7.158;2023-02-28T16:41:31;8.10;44.50
13569;DHT22;6856;51.460;7.158;2023-02-28T16:44:12;8.30;44.70
13569;DHT22;6856;51.460;7.158;2023-02-28T16:46:47;8.10;44.70
13569;DHT22;6856;51.460;7.158;2023-02-28T16:49:23;8.00;44.60
13569;DHT22;6856;51.460;7.158;2023-02-28T16:51:57;8.00;44.70
13569;DHT22;6856;51.460;7.158;2023-02-28T16:54:32;7.90;44.80
13569;DHT22;6856;51.460;7.158;2023-02-28T16:57:08;7.90;44.90
13569;DHT22;6856;51.460;7.158;2023-02-28T16:59:52;7.60;44.90
13569;DHT22;6856;51.460;7.158;2023-02-28T17:02:26;7.80;45.00
13569;DHT22;6856;51.460;7.158;2023-02-28T17:05:02;7.70;44.90
13569;DHT22;6856;51.460;7.158;2023-02-28T17:07:36;7.70;44.90
13569;DHT22;6856;51.460;7.158;2023-02-28T17:10:14;7.60;44.90
13569;DHT22;6856;51.460;7.158;2023-02-28T17:12:50;7.60;44.90
13569;DHT22;6856;51.460;7.158;2023-02-28T17:15:27;7.50;44.90
13569;DHT22;6856;51.460;7.158;2023-02-28T17:18:02;7.50;45.60
13569;DHT22;6856;51.460;7.158;2023-02-28T17:20:37;7.50;45.10
13569;DHT22;6856;51.460;7.158;2023-02-28T17:23:11;7.60;45.20
13569;DHT22;6856;51.460;7.158;2023-02-28T17:25:45;7.40;45.20
13569;DHT22;6856;51.460;7.158;2023-02-28T17:28:28;7.30;45.30
13569;DHT22;6856;51.460;7.158;2023-02-28T17:31:02;7.50;45.40
13569;DHT22;6856;51.460;7.158;2023-02-28T17:33:35;7.20;45.20
13569;DHT22;6856;51.460;7.158;2023-02-28T17:36:13;7.20;45.30
13569;DHT22;6856;51.460;7.158;2023-02-28T17:38:49;6.90;45.30
13569;DHT22;6856;51.460;7.158;2023-02-28T17:41:23;7.10;45.50
13569;DHT22;6856;51.460;7.158;2023-02-28T17:43:58;7.40;45.70
13569;DHT22;6856;51.460;7.158;2023-02-28T17:46:31;7.10;45.60
13569;DHT22;6856;51.460;7.158;2023-02-28T17:49:05;7.10;45.70
13569;DHT22;6856;51.460;7.158;2023-02-28T17:51:43;7.00;45.70
13569;DHT22;6856;51.460;7.158;2023-02-28T17:54:16;7.10;46.30